Terminal Aerodrome Forecast
Issued by NWS

Home | Current Version | Previous Version | Text Only | Print | Product List | Glossary On
Versions: 1 2 3 4 5 6 7 8 9 10 11 12 13
000
FTUS43 KDTX 261721
TAFPTK
TAF
KPTK 261721Z 2618/2718 22009KT P6SM BKN035 BKN045
      TEMPO 2621/2624 6SM -SHRA OVC035
     FM270100 VRB04KT P6SM SCT050 BKN150
     FM270900 20005KT 4SM BR SCT018 BKN200
     FM271300 20009KT P6SM BKN035=

USA.gov is the U.S. government's official web portal to all federal, state and local government web resources and services.